sensor_id;sensor_type;location;lat;lon;timestamp;temperature;humidity
16479;DHT22;8350;52.316;10.530;2024-03-29T00:00:42;7.80;99.90
16479;DHT22;8350;52.316;10.530;2024-03-29T00:03:09;7.90;99.90
16479;DHT22;8350;52.316;10.530;2024-03-29T00:05:41;7.90;99.90
16479;DHT22;8350;52.316;10.530;2024-03-29T00:08:21;7.90;99.90
16479;DHT22;8350;52.316;10.530;2024-03-29T00:10:52;7.90;99.90
16479;DHT22;8350;52.316;10.530;2024-03-29T00:13:22;7.90;99.90
16479;DHT22;8350;52.316;10.530;2024-03-29T00:15:48;7.90;99.90
16479;DHT22;8350;52.316;10.530;2024-03-29T00:18:15;7.90;99.90
16479;DHT22;8350;52.316;10.530;2024-03-29T00:20:41;7.90;99.90
16479;DHT22;8350;52.316;10.530;2024-03-29T00:23:07;7.80;99.90
16479;DHT22;8350;52.316;10.530;2024-03-29T00:25:33;7.80;99.90
16479;DHT22;8350;52.316;10.530;2024-03-29T00:28:16;7.80;99.90
16479;DHT22;8350;52.316;10.530;2024-03-29T00:30:46;7.80;99.90
16479;DHT22;8350;52.316;10.530;2024-03-29T00:33:15;7.70;99.90
16479;DHT22;8350;52.316;10.530;2024-03-29T00:35:41;7.70;99.90
16479;DHT22;8350;52.316;10.530;2024-03-29T00:38:22;7.70;99.90
16479;DHT22;8350;52.316;10.530;2024-03-29T00:40:49;7.70;99.90
16479;DHT22;8350;52.316;10.530;2024-03-29T00:43:26;7.70;99.90
16479;DHT22;8350;52.316;10.530;2024-03-29T00:45:56;7.60;99.90
16479;DHT22;8350;52.316;10.530;2024-03-29T00:48:23;7.60;99.90
16479;DHT22;8350;52.316;10.530;2024-03-29T00:50:53;7.50;99.90
16479;DHT22;8350;52.316;10.530;2024-03-29T00:53:19;7.40;99.90
16479;DHT22;8350;52.316;10.530;2024-03-29T00:55:46;7.40;99.90
16479;DHT22;8350;52.316;10.530;2024-03-29T00:58:12;7.40;99.90
16479;DHT22;8350;52.316;10.530;2024-03-29T01:00:42;7.40;99.90
16479;DHT22;8350;52.316;10.530;2024-03-29T01:03:18;7.40;99.90
16479;DHT22;8350;52.316;10.530;2024-03-29T01:05:44;7.40;99.90
16479;DHT22;8350;52.316;10.530;2024-03-29T01:08:13;7.40;99.90
16479;DHT22;8350;52.316;10.530;2024-03-29T01:10:54;7.40;99.90
16479;DHT22;8350;52.316;10.530;2024-03-29T01:13:23;7.40;99.90
16479;DHT22;8350;52.316;10.530;2024-03-29T01:16:03;7.40;99.90
16479;DHT22;8350;52.316;10.530;2024-03-29T01:18:31;7.40;99.90
16479;DHT22;8350;52.316;10.530;2024-03-29T01:21:03;7.30;99.90
16479;DHT22;8350;52.316;10.530;2024-03-29T01:23:34;7.30;99.90
16479;DHT22;8350;52.316;10.530;2024-03-29T01:26:07;7.30;99.90
16479;DHT22;8350;52.316;10.530;2024-03-29T01:31:55;7.20;99.90
16479;DHT22;8350;52.316;10.530;2024-03-29T01:34:30;7.20;99.90
16479;DHT22;8350;52.316;10.530;2024-03-29T01:37:09;7.20;99.90
16479;DHT22;8350;52.316;10.530;2024-03-29T01:39:43;7.30;99.90
16479;DHT22;8350;52.316;10.530;2024-03-29T01:42:20;7.30;99.90
16479;DHT22;8350;52.316;10.530;2024-03-29T01:44:49;7.30;99.90
16479;DHT22;8350;52.316;10.530;2024-03-29T01:47:30;7.30;99.90
16479;DHT22;8350;52.316;10.530;2024-03-29T01:50:00;7.30;99.90
16479;DHT22;8350;52.316;10.530;2024-03-29T01:52:29;7.40;99.90
16479;DHT22;8350;52.316;10.530;2024-03-29T01:55:00;7.40;99.90
16479;DHT22;8350;52.316;10.530;2024-03-29T01:57:29;7.40;99.90
16479;DHT22;8350;52.316;10.530;2024-03-29T01:59:58;7.40;99.90
16479;DHT22;8350;52.316;10.530;2024-03-29T02:02:26;7.40;99.90
16479;DHT22;8350;52.316;10.530;2024-03-29T02:04:55;7.50;99.90
16479;DHT22;8350;52.316;10.530;2024-03-29T02:07:36;7.50;99.90
16479;DHT22;8350;52.316;10.530;2024-03-29T02:10:12;7.50;99.90
16479;DHT22;8350;52.316;10.530;2024-03-29T02:12:41;7.50;99.90
16479;DHT22;8350;52.316;10.530;2024-03-29T02:15:31;7.50;99.90
16479;DHT22;8350;52.316;10.530;2024-03-29T02:17:58;7.50;99.90
16479;DHT22;8350;52.316;10.530;2024-03-29T02:20:28;7.40;99.90
16479;DHT22;8350;52.316;10.530;2024-03-29T02:23:02;7.50;99.90
16479;DHT22;8350;52.316;10.530;2024-03-29T02:25:52;7.60;99.90
16479;DHT22;8350;52.316;10.530;2024-03-29T02:28:20;7.60;99.90
16479;DHT22;8350;52.316;10.530;2024-03-29T02:31:06;7.50;99.90
16479;DHT22;8350;52.316;10.530;2024-03-29T02:33:48;7.60;99.90
16479;DHT22;8350;52.316;10.530;2024-03-29T02:36:24;7.60;99.90
16479;DHT22;8350;52.316;10.530;2024-03-29T02:38:53;7.60;99.90
16479;DHT22;8350;52.316;10.530;2024-03-29T02:41:35;7.60;99.90
16479;DHT22;8350;52.316;10.530;2024-03-29T02:44:05;7.60;99.90
16479;DHT22;8350;52.316;10.530;2024-03-29T02:46:42;7.70;99.90
16479;DHT22;8350;52.316;10.530;2024-03-29T02:49:12;7.70;99.90
16479;DHT22;8350;52.316;10.530;2024-03-29T02:51:45;7.60;99.90
16479;DHT22;8350;52.316;10.530;2024-03-29T02:54:15;7.50;99.90
16479;DHT22;8350;52.316;10.530;2024-03-29T02:56:48;7.60;99.90
16479;DHT22;8350;52.316;10.530;2024-03-29T02:59:26;7.60;99.90
16479;DHT22;8350;52.316;10.530;2024-03-29T03:02:08;7.60;99.90
16479;DHT22;8350;52.316;10.530;2024-03-29T03:04:37;7.60;99.90
16479;DHT22;8350;52.316;10.530;2024-03-29T03:07:03;7.60;99.90
16479;DHT22;8350;52.316;10.530;2024-03-29T03:10:00;7.70;99.90
16479;DHT22;8350;52.316;10.530;2024-03-29T03:13:00;7.60;99.90
16479;DHT22;8350;52.316;10.530;2024-03-29T03:15:57;7.60;99.90
16479;DHT22;8350;52.316;10.530;2024-03-29T03:18:58;7.60;99.90
16479;DHT22;8350;52.316;10.530;2024-03-29T03:21:31;7.70;99.90
16479;DHT22;8350;52.316;10.530;2024-03-29T03:24:05;7.70;99.90
16479;DHT22;8350;52.316;10.530;2024-03-29T03:26:44;7.70;99.90
16479;DHT22;8350;52.316;10.530;2024-03-29T03:29:56;7.70;99.90
16479;DHT22;8350;52.316;10.530;2024-03-29T03:32:27;7.70;99.90
16479;DHT22;8350;52.316;10.530;2024-03-29T03:35:12;7.60;99.90
16479;DHT22;8350;52.316;10.530;2024-03-29T03:37:59;7.60;99.90
16479;DHT22;8350;52.316;10.530;2024-03-29T03:40:43;7.60;99.90
16479;DHT22;8350;52.316;10.530;2024-03-29T03:43:19;7.60;99.90
16479;DHT22;8350;52.316;10.530;2024-03-29T03:45:49;7.70;99.90
16479;DHT22;8350;52.316;10.530;2024-03-29T03:48:50;7.70;99.90
16479;DHT22;8350;52.316;10.530;2024-03-29T03:51:09;7.60;99.90
16479;DHT22;8350;52.316;10.530;2024-03-29T03:53:38;7.60;99.90
16479;DHT22;8350;52.316;10.530;2024-03-29T03:56:19;7.60;99.90
16479;DHT22;8350;52.316;10.530;2024-03-29T03:58:52;7.60;99.90
16479;DHT22;8350;52.316;10.530;2024-03-29T04:01:34;7.50;99.90
16479;DHT22;8350;52.316;10.530;2024-03-29T04:04:03;7.50;99.90
16479;DHT22;8350;52.316;10.530;2024-03-29T04:06:36;7.50;99.90
16479;DHT22;8350;52.316;10.530;2024-03-29T04:09:06;7.50;99.90
16479;DHT22;8350;52.316;10.530;2024-03-29T04:11:36;7.30;99.90
16479;DHT22;8350;52.316;10.530;2024-03-29T04:14:08;7.40;99.90
16479;DHT22;8350;52.316;10.530;2024-03-29T04:16:39;7.40;99.90
16479;DHT22;8350;52.316;10.530;2024-03-29T04:19:16;7.40;99.90
16479;DHT22;8350;52.316;10.530;2024-03-29T04:21:49;7.40;99.90
16479;DHT22;8350;52.316;10.530;2024-03-29T04:24:17;7.40;99.90
16479;DHT22;8350;52.316;10.530;2024-03-29T04:26:52;7.50;99.90
16479;DHT22;8350;52.316;10.530;2024-03-29T04:29:21;7.60;99.90
16479;DHT22;8350;52.316;10.530;2024-03-29T04:31:56;7.60;99.90
16479;DHT22;8350;52.316;10.530;2024-03-29T04:34:54;7.60;99.90
16479;DHT22;8350;52.316;10.530;2024-03-29T04:37:12;7.60;99.90
16479;DHT22;8350;52.316;10.530;2024-03-29T04:39:39;7.70;99.90
16479;DHT22;8350;52.316;10.530;2024-03-29T04:42:06;7.60;99.90
16479;DHT22;8350;52.316;10.530;2024-03-29T04:44:42;7.60;99.90
16479;DHT22;8350;52.316;10.530;2024-03-29T04:47:24;7.70;99.90
16479;DHT22;8350;52.316;10.530;2024-03-29T04:49:51;7.70;99.90
16479;DHT22;8350;52.316;10.530;2024-03-29T04:52:20;7.80;99.90
16479;DHT22;8350;52.316;10.530;2024-03-29T04:54:51;7.80;99.90
16479;DHT22;8350;52.316;10.530;2024-03-29T04:57:23;7.90;99.90
16479;DHT22;8350;52.316;10.530;2024-03-29T04:59:54;7.90;99.90
16479;DHT22;8350;52.316;10.530;2024-03-29T05:02:51;7.90;99.90
16479;DHT22;8350;52.316;10.530;2024-03-29T05:05:18;7.80;99.90
16479;DHT22;8350;52.316;10.530;2024-03-29T05:08:01;7.80;99.90
16479;DHT22;8350;52.316;10.530;2024-03-29T05:10:34;7.80;99.90
16479;DHT22;8350;52.316;10.530;2024-03-29T05:13:09;7.70;99.90
16479;DHT22;8350;52.316;10.530;2024-03-29T05:15:39;7.80;99.90
16479;DHT22;8350;52.316;10.530;2024-03-29T05:18:10;7.80;99.90
16479;DHT22;8350;52.316;10.530;2024-03-29T05:20:42;7.80;99.90
16479;DHT22;8350;52.316;10.530;2024-03-29T05:23:21;7.80;99.90
16479;DHT22;8350;52.316;10.530;2024-03-29T05:25:49;7.70;99.90
16479;DHT22;8350;52.316;10.530;2024-03-29T05:31:45;7.80;99.90
16479;DHT22;8350;52.316;10.530;2024-03-29T05:34:34;7.90;99.90
16479;DHT22;8350;52.316;10.530;2024-03-29T05:37:08;7.90;99.90
16479;DHT22;8350;52.316;10.530;2024-03-29T05:39:55;7.90;99.90
16479;DHT22;8350;52.316;10.530;2024-03-29T05:42:25;8.00;99.90
16479;DHT22;8350;52.316;10.530;2024-03-29T05:45:23;8.00;99.90
16479;DHT22;8350;52.316;10.530;2024-03-29T05:48:07;8.00;99.90
16479;DHT22;8350;52.316;10.530;2024-03-29T05:50:46;8.00;99.90
16479;DHT22;8350;52.316;10.530;2024-03-29T05:53:15;8.00;99.90
16479;DHT22;8350;52.316;10.530;2024-03-29T05:55:48;8.00;99.90
16479;DHT22;8350;52.316;10.530;2024-03-29T05:58:44;8.00;99.90
16479;DHT22;8350;52.316;10.530;2024-03-29T06:01:41;8.10;99.90
16479;DHT22;8350;52.316;10.530;2024-03-29T06:04:25;8.10;99.90
16479;DHT22;8350;52.316;10.530;2024-03-29T06:07:14;8.20;99.90
16479;DHT22;8350;52.316;10.530;2024-03-29T06:12:37;8.20;99.90
16479;DHT22;8350;52.316;10.530;2024-03-29T06:15:12;8.20;99.90
16479;DHT22;8350;52.316;10.530;2024-03-29T06:17:58;8.20;99.90
16479;DHT22;8350;52.316;10.530;2024-03-29T06:20:56;8.20;99.90
16479;DHT22;8350;52.316;10.530;2024-03-29T06:23:22;8.30;99.90
16479;DHT22;8350;52.316;10.530;2024-03-29T06:25:50;8.30;99.90
16479;DHT22;8350;52.316;10.530;2024-03-29T06:31:01;8.50;99.90
16479;DHT22;8350;52.316;10.530;2024-03-29T06:33:35;8.60;99.90
16479;DHT22;8350;52.316;10.530;2024-03-29T06:36:10;8.70;99.90
16479;DHT22;8350;52.316;10.530;2024-03-29T06:38:57;8.70;99.90
16479;DHT22;8350;52.316;10.530;2024-03-29T06:41:26;8.70;99.90
16479;DHT22;8350;52.316;10.530;2024-03-29T06:44:02;8.70;99.90
16479;DHT22;8350;52.316;10.530;2024-03-29T06:46:32;8.70;99.90
16479;DHT22;8350;52.316;10.530;2024-03-29T06:49:01;8.70;99.90
16479;DHT22;8350;52.316;10.530;2024-03-29T06:51:31;8.60;99.90
16479;DHT22;8350;52.316;10.530;2024-03-29T06:54:00;8.60;99.90
16479;DHT22;8350;52.316;10.530;2024-03-29T06:56:32;8.70;99.90
16479;DHT22;8350;52.316;10.530;2024-03-29T06:59:01;8.60;99.90
16479;DHT22;8350;52.316;10.530;2024-03-29T07:01:31;8.60;99.90
16479;DHT22;8350;52.316;10.530;2024-03-29T07:04:04;8.60;99.90
16479;DHT22;8350;52.316;10.530;2024-03-29T07:06:33;8.60;99.90
16479;DHT22;8350;52.316;10.530;2024-03-29T07:09:09;8.60;99.90
16479;DHT22;8350;52.316;10.530;2024-03-29T07:11:36;8.60;99.90
16479;DHT22;8350;52.316;10.530;2024-03-29T07:14:03;8.60;99.90
16479;DHT22;8350;52.316;10.530;2024-03-29T07:16:39;8.70;99.90
16479;DHT22;8350;52.316;10.530;2024-03-29T07:19:06;8.70;99.90
16479;DHT22;8350;52.316;10.530;2024-03-29T07:21:36;8.70;99.90
16479;DHT22;8350;52.316;10.530;2024-03-29T07:24:07;8.70;99.90
16479;DHT22;8350;52.316;10.530;2024-03-29T07:26:37;8.70;99.90
16479;DHT22;8350;52.316;10.530;2024-03-29T07:29:06;8.70;99.90
16479;DHT22;8350;52.316;10.530;2024-03-29T07:31:33;8.80;99.90
16479;DHT22;8350;52.316;10.530;2024-03-29T07:34:04;8.80;99.90
16479;DHT22;8350;52.316;10.530;2024-03-29T07:36:33;8.80;99.90
16479;DHT22;8350;52.316;10.530;2024-03-29T07:39:04;8.80;99.90
16479;DHT22;8350;52.316;10.530;2024-03-29T07:41:35;8.90;99.90
16479;DHT22;8350;52.316;10.530;2024-03-29T07:47:24;8.90;99.90
16479;DHT22;8350;52.316;10.530;2024-03-29T07:49:57;9.00;99.90
16479;DHT22;8350;52.316;10.530;2024-03-29T07:53:27;9.00;99.90
16479;DHT22;8350;52.316;10.530;2024-03-29T07:55:36;9.00;99.90
16479;DHT22;8350;52.316;10.530;2024-03-29T07:58:04;9.10;99.90
16479;DHT22;8350;52.316;10.530;2024-03-29T08:00:52;9.20;99.90
16479;DHT22;8350;52.316;10.530;2024-03-29T08:03:34;9.20;99.90
16479;DHT22;8350;52.316;10.530;2024-03-29T08:06:04;9.20;99.90
16479;DHT22;8350;52.316;10.530;2024-03-29T08:08:50;9.30;99.90
16479;DHT22;8350;52.316;10.530;2024-03-29T08:11:23;9.30;99.90
16479;DHT22;8350;52.316;10.530;2024-03-29T08:13:54;9.40;99.90
16479;DHT22;8350;52.316;10.530;2024-03-29T08:16:35;9.50;99.90
16479;DHT22;8350;52.316;10.530;2024-03-29T08:19:04;9.60;99.90
16479;DHT22;8350;52.316;10.530;2024-03-29T08:21:43;9.70;99.90
16479;DHT22;8350;52.316;10.530;2024-03-29T08:24:13;9.80;99.90
16479;DHT22;8350;52.316;10.530;2024-03-29T08:27:15;9.90;99.90
16479;DHT22;8350;52.316;10.530;2024-03-29T08:29:50;10.00;99.90
16479;DHT22;8350;52.316;10.530;2024-03-29T08:32:19;10.10;99.90
16479;DHT22;8350;52.316;10.530;2024-03-29T08:34:46;10.20;99.90
16479;DHT22;8350;52.316;10.530;2024-03-29T08:37:13;10.30;99.90
16479;DHT22;8350;52.316;10.530;2024-03-29T08:39:49;10.40;99.90
16479;DHT22;8350;52.316;10.530;2024-03-29T08:42:40;10.50;99.90
16479;DHT22;8350;52.316;10.530;2024-03-29T08:45:15;10.70;99.90
16479;DHT22;8350;52.316;10.530;2024-03-29T08:48:02;10.80;99.90
16479;DHT22;8350;52.316;10.530;2024-03-29T08:50:31;10.90;99.90
16479;DHT22;8350;52.316;10.530;2024-03-29T08:53:00;11.00;99.90
16479;DHT22;8350;52.316;10.530;2024-03-29T08:55:31;11.00;99.90
16479;DHT22;8350;52.316;10.530;2024-03-29T08:58:02;11.10;99.90
16479;DHT22;8350;52.316;10.530;2024-03-29T09:00:31;11.10;99.90
16479;DHT22;8350;52.316;10.530;2024-03-29T09:03:04;11.20;99.90
16479;DHT22;8350;52.316;10.530;2024-03-29T09:09:18;11.30;99.90
16479;DHT22;8350;52.316;10.530;2024-03-29T09:11:47;11.30;99.90
16479;DHT22;8350;52.316;10.530;2024-03-29T09:17:58;11.30;99.90
16479;DHT22;8350;52.316;10.530;2024-03-29T09:20:39;11.40;99.90
16479;DHT22;8350;52.316;10.530;2024-03-29T09:23:10;11.40;99.90
16479;DHT22;8350;52.316;10.530;2024-03-29T09:25:55;11.40;99.90
16479;DHT22;8350;52.316;10.530;2024-03-29T09:31:46;11.40;99.90
16479;DHT22;8350;52.316;10.530;2024-03-29T09:34:36;11.50;99.90
16479;DHT22;8350;52.316;10.530;2024-03-29T09:37:28;11.40;99.90
16479;DHT22;8350;52.316;10.530;2024-03-29T09:40:01;11.50;99.90
16479;DHT22;8350;52.316;10.530;2024-03-29T09:42:32;11.50;99.90
16479;DHT22;8350;52.316;10.530;2024-03-29T09:45:05;11.50;99.90
16479;DHT22;8350;52.316;10.530;2024-03-29T09:51:05;11.60;99.90
16479;DHT22;8350;52.316;10.530;2024-03-29T09:54:05;11.60;99.90
16479;DHT22;8350;52.316;10.530;2024-03-29T09:56:35;11.70;99.90
16479;DHT22;8350;52.316;10.530;2024-03-29T09:59:04;11.80;99.90
16479;DHT22;8350;52.316;10.530;2024-03-29T10:04:08;11.90;99.90
16479;DHT22;8350;52.316;10.530;2024-03-29T10:09:30;11.80;99.90
16479;DHT22;8350;52.316;10.530;2024-03-29T10:12:13;11.80;99.90
16479;DHT22;8350;52.316;10.530;2024-03-29T10:14:44;11.90;99.90
16479;DHT22;8350;52.316;10.530;2024-03-29T10:17:32;11.90;99.90
16479;DHT22;8350;52.316;10.530;2024-03-29T10:20:00;11.90;99.90
16479;DHT22;8350;52.316;10.530;2024-03-29T10:22:28;11.90;99.90
16479;DHT22;8350;52.316;10.530;2024-03-29T10:25:04;12.00;99.90
16479;DHT22;8350;52.316;10.530;2024-03-29T10:27:45;12.10;99.90
16479;DHT22;8350;52.316;10.530;2024-03-29T10:30:28;12.20;99.90
16479;DHT22;8350;52.316;10.530;2024-03-29T10:33:18;12.30;99.90
16479;DHT22;8350;52.316;10.530;2024-03-29T10:35:49;12.50;99.90
16479;DHT22;8350;52.316;10.530;2024-03-29T10:38:18;12.70;99.90
16479;DHT22;8350;52.316;10.530;2024-03-29T10:44:04;13.00;99.90
16479;DHT22;8350;52.316;10.530;2024-03-29T10:46:40;13.10;99.90
16479;DHT22;8350;52.316;10.530;2024-03-29T10:50:29;13.30;99.90
16479;DHT22;8350;52.316;10.530;2024-03-29T10:52:21;13.40;99.90
16479;DHT22;8350;52.316;10.530;2024-03-29T10:54:59;13.60;99.90
16479;DHT22;8350;52.316;10.530;2024-03-29T10:57:29;13.70;99.90
16479;DHT22;8350;52.316;10.530;2024-03-29T11:00:17;13.70;99.90
16479;DHT22;8350;52.316;10.530;2024-03-29T11:02:54;13.70;99.90
16479;DHT22;8350;52.316;10.530;2024-03-29T11:05:49;13.80;99.90
16479;DHT22;8350;52.316;10.530;2024-03-29T11:09:24;14.20;99.90
16479;DHT22;8350;52.316;10.530;2024-03-29T11:12:07;14.50;99.90
16479;DHT22;8350;52.316;10.530;2024-03-29T11:14:46;14.60;99.90
16479;DHT22;8350;52.316;10.530;2024-03-29T11:17:24;14.50;99.90
16479;DHT22;8350;52.316;10.530;2024-03-29T11:19:54;14.30;99.90
16479;DHT22;8350;52.316;10.530;2024-03-29T11:22:35;14.20;99.90
16479;DHT22;8350;52.316;10.530;2024-03-29T11:26:11;14.00;99.90
16479;DHT22;8350;52.316;10.530;2024-03-29T11:32:08;14.30;99.90
16479;DHT22;8350;52.316;10.530;2024-03-29T11:37:38;14.40;99.90
16479;DHT22;8350;52.316;10.530;2024-03-29T11:40:15;14.40;99.90
16479;DHT22;8350;52.316;10.530;2024-03-29T11:42:52;14.40;99.90
16479;DHT22;8350;52.316;10.530;2024-03-29T11:45:27;14.30;99.90
16479;DHT22;8350;52.316;10.530;2024-03-29T11:48:02;14.30;99.90
16479;DHT22;8350;52.316;10.530;2024-03-29T11:50:35;14.30;99.90
16479;DHT22;8350;52.316;10.530;2024-03-29T11:53:14;14.30;99.90
16479;DHT22;8350;52.316;10.530;2024-03-29T11:55:42;14.40;99.90
16479;DHT22;8350;52.316;10.530;2024-03-29T11:58:21;14.30;99.90
16479;DHT22;8350;52.316;10.530;2024-03-29T12:00:56;14.30;99.90
16479;DHT22;8350;52.316;10.530;2024-03-29T12:03:29;14.40;99.90
16479;DHT22;8350;52.316;10.530;2024-03-29T12:06:00;14.40;99.90
16479;DHT22;8350;52.316;10.530;2024-03-29T12:08:39;14.50;99.90
16479;DHT22;8350;52.316;10.530;2024-03-29T12:11:16;14.50;99.90
16479;DHT22;8350;52.316;10.530;2024-03-29T12:13:58;14.60;99.90
16479;DHT22;8350;52.316;10.530;2024-03-29T12:16:28;14.70;99.90
16479;DHT22;8350;52.316;10.530;2024-03-29T12:18:58;14.80;99.90
16479;DHT22;8350;52.316;10.530;2024-03-29T12:22:49;14.80;99.90
16479;DHT22;8350;52.316;10.530;2024-03-29T12:24:29;14.80;99.90
16479;DHT22;8350;52.316;10.530;2024-03-29T12:26:59;14.90;99.90
16479;DHT22;8350;52.316;10.530;2024-03-29T12:29:54;14.80;99.90
16479;DHT22;8350;52.316;10.530;2024-03-29T12:32:21;14.90;99.90
16479;DHT22;8350;52.316;10.530;2024-03-29T12:35:27;14.80;99.90
16479;DHT22;8350;52.316;10.530;2024-03-29T12:37:54;14.80;99.90
16479;DHT22;8350;52.316;10.530;2024-03-29T12:40:29;14.90;99.90
16479;DHT22;8350;52.316;10.530;2024-03-29T12:43:03;15.10;99.90
16479;DHT22;8350;52.316;10.530;2024-03-29T12:45:30;15.00;99.90
16479;DHT22;8350;52.316;10.530;2024-03-29T12:47:59;14.80;99.90
16479;DHT22;8350;52.316;10.530;2024-03-29T12:50:44;14.70;99.90
16479;DHT22;8350;52.316;10.530;2024-03-29T12:53:13;14.60;99.90
16479;DHT22;8350;52.316;10.530;2024-03-29T17:12:11;13.60;99.90
16479;DHT22;8350;52.316;10.530;2024-03-29T17:14:41;13.50;99.90
16479;DHT22;8350;52.316;10.530;2024-03-29T17:17:07;13.50;99.90
16479;DHT22;8350;52.316;10.530;2024-03-29T17:19:39;13.40;99.90
16479;DHT22;8350;52.316;10.530;2024-03-29T17:22:10;13.30;99.90
16479;DHT22;8350;52.316;10.530;2024-03-29T17:27:59;13.10;99.90
16479;DHT22;8350;52.316;10.530;2024-03-29T17:30:30;13.10;99.90
16479;DHT22;8350;52.316;10.530;2024-03-29T17:33:02;13.00;99.90
16479;DHT22;8350;52.316;10.530;2024-03-29T17:35:43;13.00;99.90
16479;DHT22;8350;52.316;10.530;2024-03-29T17:38:22;12.90;99.90
16479;DHT22;8350;52.316;10.530;2024-03-29T17:40:49;13.00;99.90
16479;DHT22;8350;52.316;10.530;2024-03-29T17:43:18;12.90;99.90
16479;DHT22;8350;52.316;10.530;2024-03-29T17:45:43;12.90;99.90
16479;DHT22;8350;52.316;10.530;2024-03-29T17:48:11;12.90;99.90
16479;DHT22;8350;52.316;10.530;2024-03-29T17:50:36;12.90;99.90
16479;DHT22;8350;52.316;10.530;2024-03-29T17:53:03;12.90;99.90
16479;DHT22;8350;52.316;10.530;2024-03-29T17:55:29;12.90;99.90
16479;DHT22;8350;52.316;10.530;2024-03-29T17:57:57;12.90;99.90
16479;DHT22;8350;52.316;10.530;2024-03-29T18:00:24;12.80;99.90
16479;DHT22;8350;52.316;10.530;2024-03-29T18:02:54;12.80;99.90
16479;DHT22;8350;52.316;10.530;2024-03-29T18:05:19;12.80;99.90
16479;DHT22;8350;52.316;10.530;2024-03-29T18:07:47;12.80;99.90
16479;DHT22;8350;52.316;10.530;2024-03-29T18:10:15;12.80;99.90
16479;DHT22;8350;52.316;10.530;2024-03-29T18:12:43;12.70;99.90
16479;DHT22;8350;52.316;10.530;2024-03-29T18:15:09;12.70;99.90
16479;DHT22;8350;52.316;10.530;2024-03-29T18:17:37;12.70;99.90
16479;DHT22;8350;52.316;10.530;2024-03-29T18:20:05;12.70;99.90
16479;DHT22;8350;52.316;10.530;2024-03-29T18:22:33;12.70;99.90
16479;DHT22;8350;52.316;10.530;2024-03-29T18:24:59;12.60;99.90
16479;DHT22;8350;52.316;10.530;2024-03-29T18:27:26;12.60;99.90
16479;DHT22;8350;52.316;10.530;2024-03-29T18:29:52;12.60;99.90
16479;DHT22;8350;52.316;10.530;2024-03-29T18:32:19;12.60;99.90
16479;DHT22;8350;52.316;10.530;2024-03-29T18:34:46;12.60;99.90
16479;DHT22;8350;52.316;10.530;2024-03-29T18:37:13;12.60;99.90
16479;DHT22;8350;52.316;10.530;2024-03-29T18:39:39;12.60;99.90
16479;DHT22;8350;52.316;10.530;2024-03-29T18:44:41;12.40;99.90
16479;DHT22;8350;52.316;10.530;2024-03-29T18:47:08;12.40;99.90
16479;DHT22;8350;52.316;10.530;2024-03-29T18:49:33;12.40;99.90
16479;DHT22;8350;52.316;10.530;2024-03-29T18:52:01;12.40;99.90
16479;DHT22;8350;52.316;10.530;2024-03-29T18:54:29;12.40;99.90
16479;DHT22;8350;52.316;10.530;2024-03-29T18:56:59;12.40;99.90
16479;DHT22;8350;52.316;10.530;2024-03-29T18:59:26;12.30;99.90
16479;DHT22;8350;52.316;10.530;2024-03-29T19:01:53;12.30;99.90
16479;DHT22;8350;52.316;10.530;2024-03-29T19:04:19;12.30;99.90
16479;DHT22;8350;52.316;10.530;2024-03-29T19:06:49;12.30;99.90
16479;DHT22;8350;52.316;10.530;2024-03-29T19:09:19;12.20;99.90
16479;DHT22;8350;52.316;10.530;2024-03-29T19:11:46;12.30;99.90
16479;DHT22;8350;52.316;10.530;2024-03-29T19:14:18;12.20;99.90
16479;DHT22;8350;52.316;10.530;2024-03-29T19:16:46;12.30;99.90
16479;DHT22;8350;52.316;10.530;2024-03-29T19:19:12;12.30;99.90
16479;DHT22;8350;52.316;10.530;2024-03-29T19:21:39;12.30;99.90
16479;DHT22;8350;52.316;10.530;2024-03-29T19:24:09;12.40;99.90
16479;DHT22;8350;52.316;10.530;2024-03-29T19:26:38;12.30;99.90
16479;DHT22;8350;52.316;10.530;2024-03-29T19:29:04;12.20;99.90
16479;DHT22;8350;52.316;10.530;2024-03-29T19:31:30;12.30;99.90
16479;DHT22;8350;52.316;10.530;2024-03-29T19:33:56;12.30;99.90
16479;DHT22;8350;52.316;10.530;2024-03-29T19:36:23;12.30;99.90
16479;DHT22;8350;52.316;10.530;2024-03-29T19:38:49;12.30;99.90
16479;DHT22;8350;52.316;10.530;2024-03-29T19:41:15;12.20;99.90
16479;DHT22;8350;52.316;10.530;2024-03-29T19:43:43;12.20;99.90
16479;DHT22;8350;52.316;10.530;2024-03-29T19:46:26;12.20;99.90
16479;DHT22;8350;52.316;10.530;2024-03-29T19:48:52;12.20;99.90
16479;DHT22;8350;52.316;10.530;2024-03-29T19:51:24;12.10;99.90
16479;DHT22;8350;52.316;10.530;2024-03-29T19:53:53;12.10;99.90
16479;DHT22;8350;52.316;10.530;2024-03-29T19:56:23;12.10;99.90
16479;DHT22;8350;52.316;10.530;2024-03-29T19:58:50;12.10;99.90
16479;DHT22;8350;52.316;10.530;2024-03-29T20:01:17;12.10;99.90
16479;DHT22;8350;52.316;10.530;2024-03-29T20:03:43;12.20;99.90
16479;DHT22;8350;52.316;10.530;2024-03-29T20:06:10;12.20;99.90
16479;DHT22;8350;52.316;10.530;2024-03-29T20:08:36;12.20;99.90
16479;DHT22;8350;52.316;10.530;2024-03-29T20:11:04;12.20;99.90
16479;DHT22;8350;52.316;10.530;2024-03-29T20:13:30;12.20;99.90
16479;DHT22;8350;52.316;10.530;2024-03-29T20:15:58;12.20;99.90
16479;DHT22;8350;52.316;10.530;2024-03-29T20:18:24;12.20;99.90
16479;DHT22;8350;52.316;10.530;2024-03-29T20:20:52;12.20;99.90
16479;DHT22;8350;52.316;10.530;2024-03-29T20:23:19;12.20;99.90
16479;DHT22;8350;52.316;10.530;2024-03-29T20:25:58;12.20;99.90
16479;DHT22;8350;52.316;10.530;2024-03-29T20:28:24;12.20;99.90
16479;DHT22;8350;52.316;10.530;2024-03-29T20:30:54;12.30;99.90
16479;DHT22;8350;52.316;10.530;2024-03-29T20:33:23;12.30;99.90
16479;DHT22;8350;52.316;10.530;2024-03-29T20:35:52;12.30;99.90
16479;DHT22;8350;52.316;10.530;2024-03-29T20:38:19;12.30;99.90
16479;DHT22;8350;52.316;10.530;2024-03-29T20:40:48;12.20;99.90
16479;DHT22;8350;52.316;10.530;2024-03-29T20:43:19;12.20;99.90
16479;DHT22;8350;52.316;10.530;2024-03-29T20:45:46;12.20;99.90
16479;DHT22;8350;52.316;10.530;2024-03-29T20:48:18;12.20;99.90
16479;DHT22;8350;52.316;10.530;2024-03-29T20:50:45;12.20;99.90
16479;DHT22;8350;52.316;10.530;2024-03-29T20:53:12;12.20;99.90
16479;DHT22;8350;52.316;10.530;2024-03-29T20:55:38;12.10;99.90
16479;DHT22;8350;52.316;10.530;2024-03-29T20:58:05;12.20;99.90
16479;DHT22;8350;52.316;10.530;2024-03-29T21:00:31;12.20;99.90
16479;DHT22;8350;52.316;10.530;2024-03-29T21:02:58;12.20;99.90
16479;DHT22;8350;52.316;10.530;2024-03-29T21:05:50;12.20;99.90
16479;DHT22;8350;52.316;10.530;2024-03-29T21:08:17;12.20;99.90
16479;DHT22;8350;52.316;10.530;2024-03-29T21:10:53;12.20;99.90
16479;DHT22;8350;52.316;10.530;2024-03-29T21:13:23;12.10;99.90
16479;DHT22;8350;52.316;10.530;2024-03-29T21:15:50;12.10;99.90
16479;DHT22;8350;52.316;10.530;2024-03-29T21:18:17;12.10;99.90
16479;DHT22;8350;52.316;10.530;2024-03-29T21:20:44;12.10;99.90
16479;DHT22;8350;52.316;10.530;2024-03-29T21:23:11;12.00;99.90
16479;DHT22;8350;52.316;10.530;2024-03-29T21:25:38;11.90;99.90